Time;durP1;ratioP1;P1;durP2;ratioP2;P2;SDS_P1;SDS_P2;PMS_P1;PMS_P2;Temp;Humidity;BMP_temperature;BMP_pressure;BME280_temperature;BME280_humidity;BME280_pressure;Samples;Min_cycle;Max_cycle;Signal;HPM_P1;HPM_P2
2021/11/28 00:01:49;;;;;;;35.05;20.08;;;6.40;80.00;;;;;;5013612;28;106390;-69
2021/11/28 00:04:16;;;;;;;32.67;19.80;;;6.40;80.00;;;;;;5014207;28;99231;-69
2021/11/28 00:06:53;;;;;;;35.53;21.55;;;6.40;80.00;;;;;;4995680;28;98658;-69
2021/11/28 00:14:45;;;;;;;35.90;21.20;;;6.40;80.30;;;;;;5013914;28;98388;-68
2021/11/28 00:17:12;;;;;;;37.67;20.92;;;6.40;80.30;;;;;;5013738;28;98534;-68
2021/11/28 00:19:40;;;;;;;40.78;21.67;;;6.40;80.30;;;;;;5013503;28;99002;-69
2021/11/28 00:22:08;;;;;;;38.50;22.52;;;6.40;80.30;;;;;;4994865;28;101101;-69
2021/11/28 00:24:36;;;;;;;38.25;22.15;;;6.40;80.30;;;;;;5012851;28;98549;-69
2021/11/28 00:27:04;;;;;;;37.95;20.75;;;6.40;80.30;;;;;;4995493;28;97797;-69
2021/11/28 00:29:33;;;;;;;33.85;20.98;;;6.40;80.30;;;;;;4994869;28;104003;-69
2021/11/28 00:32:00;;;;;;;35.40;20.77;;;6.40;80.40;;;;;;5012900;28;98943;-69
2021/11/28 00:34:27;;;;;;;36.58;21.33;;;6.40;80.30;;;;;;5011807;28;99249;-68
2021/11/28 00:36:54;;;;;;;34.33;21.10;;;6.40;80.30;;;;;;4994861;28;98627;-69
2021/11/28 00:39:22;;;;;;;40.63;22.08;;;6.40;80.40;;;;;;5012899;28;99076;-69
2021/11/28 00:41:48;;;;;;;36.75;21.80;;;6.40;80.40;;;;;;5012499;28;99126;-69
2021/11/28 00:44:29;;;;;;;40.40;23.00;;;6.40;80.40;;;;;;5013228;28;98700;-68
2021/11/28 00:46:56;;;;;;;35.17;21.88;;;6.40;80.40;;;;;;4994891;28;98586;-69
2021/11/28 00:49:25;;;;;;;38.85;21.98;;;6.40;80.50;;;;;;5012432;28;101108;-69
2021/11/28 00:51:56;;;;;;;43.03;23.40;;;6.40;80.40;;;;;;5013111;28;98844;-69
2021/11/28 00:54:29;;;;;;;40.78;22.70;;;6.40;80.40;;;;;;4991353;28;98531;-69
2021/11/28 00:56:58;;;;;;;39.88;22.67;;;6.40;80.50;;;;;;4993001;28;98557;-69
2021/11/28 00:59:28;;;;;;;41.30;23.50;;;6.40;80.60;;;;;;4990979;28;102245;-69
2021/11/28 01:01:55;;;;;;;42.50;23.77;;;6.40;80.60;;;;;;4990673;28;102294;-69
2021/11/28 01:04:23;;;;;;;43.92;23.67;;;6.30;80.60;;;;;;4991590;28;98550;-68
2021/11/28 01:06:50;;;;;;;42.90;23.42;;;6.30;80.70;;;;;;4991408;28;98638;-69
2021/11/28 01:09:18;;;;;;;44.88;23.45;;;6.30;80.60;;;;;;4991313;28;101791;-69
2021/11/28 01:11:45;;;;;;;47.95;24.60;;;6.30;80.60;;;;;;4992434;28;98986;-69
2021/11/28 01:14:11;;;;;;;46.90;23.17;;;6.30;80.70;;;;;;4991302;28;98579;-69
2021/11/28 01:16:43;;;;;;;44.42;22.40;;;6.30;80.70;;;;;;4991595;28;97798;-69
2021/11/28 01:19:10;;;;;;;40.05;22.70;;;6.30;80.80;;;;;;4990791;28;101845;-69
2021/11/28 01:21:52;;;;;;;46.03;22.52;;;6.30;80.80;;;;;;4991083;28;98813;-69
2021/11/28 01:24:19;;;;;;;44.15;24.13;;;6.40;80.80;;;;;;4991163;28;99317;-69
2021/11/28 01:26:47;;;;;;;49.45;26.83;;;6.40;80.80;;;;;;4992282;28;98497;-72
2021/11/28 01:29:14;;;;;;;49.60;25.23;;;6.30;80.70;;;;;;4990653;28;101627;-72
2021/11/28 01:31:41;;;;;;;38.33;23.13;;;6.30;80.70;;;;;;4990976;28;100106;-72
2021/11/28 01:34:09;;;;;;;46.60;25.15;;;6.30;80.80;;;;;;4990813;28;101722;-72
2021/11/28 01:36:37;;;;;;;45.40;24.80;;;6.30;80.90;;;;;;4990257;28;99059;-69
2021/11/28 01:39:05;;;;;;;44.75;24.58;;;6.30;81.00;;;;;;4990519;28;100161;-69
2021/11/28 01:41:32;;;;;;;48.97;24.98;;;6.30;81.10;;;;;;5007482;28;101875;-69
2021/11/28 01:44:02;;;;;;;44.03;24.75;;;6.30;81.10;;;;;;4992384;28;98571;-69
2021/11/28 01:46:30;;;;;;;41.58;23.13;;;6.30;81.10;;;;;;4992327;28;98547;-68
2021/11/28 01:48:57;;;;;;;45.95;24.60;;;6.30;81.10;;;;;;4989965;28;102367;-69
2021/11/28 01:51:26;;;;;;;42.95;22.75;;;6.30;81.10;;;;;;5007034;28;102178;-69
2021/11/28 01:53:54;;;;;;;48.47;25.33;;;6.30;81.10;;;;;;4991540;28;100026;-69
2021/11/28 01:56:23;;;;;;;41.78;24.30;;;6.20;81.10;;;;;;4990922;28;99067;-68
2021/11/28 01:58:50;;;;;;;41.20;23.85;;;6.20;81.20;;;;;;4990299;28;101833;-68
2021/11/28 02:01:20;;;;;;;47.08;24.67;;;6.20;81.20;;;;;;4990212;28;101215;-69
2021/11/28 02:03:48;;;;;;;49.95;25.45;;;6.20;81.30;;;;;;4990803;28;98623;-69
2021/11/28 02:06:18;;;;;;;46.38;24.40;;;6.10;81.30;;;;;;4992295;28;97805;-69
2021/11/28 02:08:46;;;;;;;46.70;24.27;;;6.10;81.40;;;;;;4990167;28;101975;-69
2021/11/28 02:11:15;;;;;;;44.92;24.15;;;6.10;81.40;;;;;;4990132;28;101401;-69
2021/11/28 02:13:42;;;;;;;42.58;24.38;;;6.10;81.50;;;;;;4990279;28;99863;-69
2021/11/28 02:16:12;;;;;;;41.50;22.75;;;6.10;81.60;;;;;;4990319;28;98573;-69
2021/11/28 02:18:39;;;;;;;48.67;24.23;;;6.10;81.50;;;;;;4990376;28;101716;-69
2021/11/28 02:21:08;;;;;;;39.92;23.63;;;6.00;81.60;;;;;;4991128;28;98877;-69
2021/11/28 02:23:35;;;;;;;39.15;22.95;;;6.00;81.70;;;;;;4990950;28;99434;-72
2021/11/28 02:26:08;;;;;;;44.92;23.58;;;6.00;81.70;;;;;;4990244;28;98576;-72
2021/11/28 02:28:39;;;;;;;41.97;23.10;;;6.00;81.70;;;;;;4989964;28;101827;-69
2021/11/28 02:31:07;;;;;;;39.67;21.83;;;6.00;81.70;;;;;;4990325;28;101461;-69
2021/11/28 02:33:34;;;;;;;41.53;22.80;;;6.00;81.70;;;;;;4990311;28;98594;-72
2021/11/28 02:36:02;;;;;;;37.22;22.10;;;6.00;81.70;;;;;;5007062;28;99089;-72
2021/11/28 02:38:30;;;;;;;35.67;21.30;;;6.00;81.60;;;;;;4989735;28;100982;-72
2021/11/28 02:41:00;;;;;;;38.70;21.85;;;6.00;81.70;;;;;;4990094;28;101847;-72
2021/11/28 02:43:31;;;;;;;39.22;21.52;;;6.00;81.80;;;;;;4974224;28;98579;-69
2021/11/28 02:46:05;;;;;;;40.60;22.92;;;6.00;81.90;;;;;;4990210;28;98538;-69
2021/11/28 02:48:33;;;;;;;38.40;22.35;;;5.90;81.90;;;;;;5007793;28;100412;-72
2021/11/28 02:51:02;;;;;;;38.15;21.90;;;5.90;81.90;;;;;;4993468;28;98937;-72
2021/11/28 02:53:30;;;;;;;36.13;21.05;;;5.90;81.90;;;;;;4993809;28;98513;-69
2021/11/28 02:56:01;;;;;;;42.25;21.63;;;5.90;81.90;;;;;;4993258;28;101062;-68
2021/11/28 02:58:32;;;;;;;35.97;19.33;;;5.80;81.80;;;;;;4993098;28;101700;-69
2021/11/28 03:01:02;;;;;;;34.78;20.48;;;5.80;81.90;;;;;;4976787;28;100357;-69
2021/11/28 03:03:30;;;;;;;33.05;19.15;;;5.80;81.90;;;;;;4994349;28;99344;-69
2021/11/28 03:05:57;;;;;;;32.97;19.63;;;5.80;81.90;;;;;;4993636;28;98585;-69
2021/11/28 03:08:24;;;;;;;31.23;18.55;;;5.80;81.90;;;;;;4992786;28;101585;-69
2021/11/28 03:10:55;;;;;;;31.45;18.40;;;5.80;81.80;;;;;;4993121;28;101428;-69
2021/11/28 03:13:32;;;;;;;32.33;18.23;;;5.80;81.80;;;;;;4993086;28;98612;-69
2021/11/28 03:16:03;;;;;;;30.58;18.85;;;5.80;81.80;;;;;;4993490;28;98540;-69
2021/11/28 03:18:31;;;;;;;32.25;17.88;;;5.80;81.70;;;;;;4992591;28;101393;-69
2021/11/28 03:21:05;;;;;;;29.58;17.85;;;5.80;81.80;;;;;;4993283;28;101011;-69
2021/11/28 03:23:33;;;;;;;27.35;18.33;;;5.80;81.80;;;;;;4992940;28;98596;-72
2021/11/28 03:26:13;;;;;;;31.23;18.42;;;5.80;81.70;;;;;;4994460;28;98613;-72
2021/11/28 03:28:49;;;;;;;30.90;17.67;;;5.80;81.70;;;;;;4992372;28;102500;-72
2021/11/28 03:31:23;;;;;;;27.70;17.42;;;5.80;81.80;;;;;;5009255;28;102261;-72
2021/11/28 03:33:53;;;;;;;31.52;18.10;;;5.80;81.80;;;;;;4994285;28;98586;-72
2021/11/28 03:36:29;;;;;;;31.02;18.00;;;5.90;81.90;;;;;;4992826;28;99021;-72
2021/11/28 03:38:59;;;;;;;30.05;17.73;;;5.90;81.80;;;;;;4992826;28;101553;-72
2021/11/28 03:41:28;;;;;;;32.63;17.92;;;5.90;81.70;;;;;;4992128;28;101523;-72
2021/11/28 03:43:57;;;;;;;33.10;19.05;;;5.90;81.60;;;;;;4976663;28;98569;-72
2021/11/28 03:46:27;;;;;;;30.33;17.80;;;5.90;81.50;;;;;;4993088;28;97820;-72
2021/11/28 03:48:59;;;;;;;33.78;18.35;;;6.00;81.60;;;;;;4992328;28;101605;-72
2021/11/28 03:51:26;;;;;;;29.30;17.25;;;5.90;81.60;;;;;;4992065;28;101225;-72
2021/11/28 03:53:54;;;;;;;28.20;17.27;;;5.90;81.50;;;;;;4960152;28;99392;-72
2021/11/28 03:56:22;;;;;;;30.83;18.58;;;5.80;81.50;;;;;;5013303;28;98571;-72
2021/11/28 03:58:51;;;;;;;29.48;17.45;;;5.80;81.60;;;;;;4995776;28;101647;-72
2021/11/28 04:01:20;;;;;;;30.05;18.10;;;5.80;81.60;;;;;;4994147;28;100109;-72
2021/11/28 04:03:47;;;;;;;30.00;17.42;;;5.80;81.60;;;;;;4979223;28;98476;-72
2021/11/28 04:06:33;;;;;;;29.63;17.67;;;5.70;81.50;;;;;;5012126;28;98595;-72
2021/11/28 04:09:00;;;;;;;33.60;19.00;;;5.70;81.60;;;;;;5012021;28;101637;-72
2021/11/28 04:11:28;;;;;;;29.73;17.63;;;5.60;81.70;;;;;;4995850;28;101211;-72
2021/11/28 04:13:55;;;;;;;33.60;19.30;;;5.70;81.80;;;;;;5012174;28;98542;-72
2021/11/28 04:16:22;;;;;;;30.30;17.00;;;5.70;81.90;;;;;;5012033;28;98611;-73
2021/11/28 04:18:49;;;;;;;31.80;18.70;;;5.70;81.70;;;;;;4994926;28;100890;-72
2021/11/28 04:21:18;;;;;;;30.95;17.45;;;5.70;81.80;;;;;;5011734;28;101936;-72
2021/11/28 04:23:46;;;;;;;32.45;18.45;;;5.70;81.80;;;;;;4995672;28;98519;-72
2021/11/28 04:26:13;;;;;;;29.45;18.00;;;5.70;81.80;;;;;;4995233;28;98571;-72
2021/11/28 04:28:40;;;;;;;31.40;17.35;;;5.70;81.80;;;;;;4994907;28;100253;-73
2021/11/28 04:31:07;;;;;;;31.27;17.77;;;5.70;81.70;;;;;;5013042;28;98879;-72
2021/11/28 04:33:34;;;;;;;31.08;17.45;;;5.70;81.70;;;;;;4995126;28;98570;-73
2021/11/28 04:36:01;;;;;;;31.63;18.20;;;5.70;81.70;;;;;;4995727;28;97784;-72
2021/11/28 04:38:29;;;;;;;30.05;16.48;;;5.60;81.60;;;;;;4994601;28;101868;-73
2021/11/28 04:40:56;;;;;;;35.45;18.17;;;5.60;81.70;;;;;;5011408;28;100231;-72
2021/11/28 04:43:23;;;;;;;35.88;18.77;;;5.50;81.80;;;;;;4994580;28;99370;-72
2021/11/28 04:45:50;;;;;;;37.58;19.45;;;5.40;82.10;;;;;;5011973;28;98536;-73
2021/11/28 04:48:17;;;;;;;33.88;18.50;;;5.30;82.00;;;;;;5012852;28;99126;-73
2021/11/28 04:50:49;;;;;;;33.78;18.55;;;5.20;82.20;;;;;;4994722;28;100143;-72
2021/11/28 04:53:17;;;;;;;41.10;19.13;;;5.10;82.50;;;;;;4995424;28;99010;-73
2021/11/28 04:55:43;;;;;;;40.50;18.88;;;5.00;82.70;;;;;;4994256;28;98637;-72
2021/11/28 04:58:11;;;;;;;30.40;18.08;;;4.90;82.90;;;;;;4994852;28;100377;-73
2021/11/28 05:00:38;;;;;;;39.60;18.75;;;4.80;83.10;;;;;;4994792;28;101041;-72
2021/11/28 05:03:08;;;;;;;39.47;18.25;;;4.70;83.20;;;;;;4978779;28;99111;-72
2021/11/28 05:05:55;;;;;;;38.65;18.10;;;4.60;83.30;;;;;;5012553;28;98762;-72
2021/11/28 05:08:40;;;;;;;39.53;19.00;;;4.60;83.60;;;;;;5010204;28;99587;-72
2021/11/28 05:11:09;;;;;;;40.63;19.02;;;4.50;84.10;;;;;;4994251;28;101827;-72
2021/11/28 05:13:36;;;;;;;41.88;20.15;;;4.40;84.00;;;;;;5011184;28;98503;-73
2021/11/28 05:16:03;;;;;;;43.15;19.33;;;4.40;84.10;;;;;;5011497;28;98635;-72
2021/11/28 05:19:00;;;;;;;43.45;19.02;;;4.30;84.30;;;;;;4989765;28;99067;-73
2021/11/28 05:21:47;;;;;;;40.00;18.98;;;4.20;84.60;;;;;;5011076;28;98694;-72
2021/11/28 05:24:17;;;;;;;41.17;18.60;;;4.20;84.70;;;;;;5011370;28;98471;-73
2021/11/28 05:26:48;;;;;;;37.42;17.75;;;4.10;84.70;;;;;;4994685;28;97867;-72
2021/11/28 05:29:18;;;;;;;42.88;19.58;;;4.10;84.80;;;;;;4994314;28;101533;-72
2021/11/28 05:31:46;;;;;;;38.38;18.60;;;4.00;85.00;;;;;;4994036;28;101881;-72
2021/11/28 05:34:39;;;;;;;42.05;20.17;;;4.00;85.20;;;;;;5011309;28;99245;-72
2021/11/28 05:37:24;;;;;;;41.53;18.88;;;3.90;85.40;;;;;;5012523;28;98451;-72
2021/11/28 05:39:59;;;;;;;48.03;19.07;;;3.90;85.60;;;;;;4995255;28;101036;-73
2021/11/28 05:42:27;;;;;;;46.15;19.80;;;3.90;85.70;;;;;;4994227;28;100086;-72
2021/11/28 05:44:56;;;;;;;50.85;21.23;;;3.80;86.20;;;;;;4994367;28;98614;-69
2021/11/28 05:47:38;;;;;;;53.75;21.05;;;3.80;86.00;;;;;;5012084;28;98563;-68
2021/11/28 05:50:27;;;;;;;46.70;19.85;;;3.70;86.10;;;;;;5010106;28;98760;-68
2021/11/28 05:52:55;;;;;;;53.40;21.02;;;3.70;86.10;;;;;;4994369;28;101596;-69
2021/11/28 05:55:23;;;;;;;54.80;20.52;;;3.60;86.00;;;;;;5010394;28;98599;-69
2021/11/28 05:57:54;;;;;;;48.95;20.48;;;3.60;86.00;;;;;;4994000;28;98553;-69
2021/11/28 06:00:24;;;;;;;57.55;20.38;;;3.60;86.00;;;;;;4993397;28;102545;-68
2021/11/28 06:02:53;;;;;;;55.42;21.60;;;3.60;85.90;;;;;;4992755;28;123405;-68
2021/11/28 06:05:40;;;;;;;42.35;19.30;;;3.60;85.80;;;;;;5010444;28;98413;-69
2021/11/28 06:08:25;;;;;;;50.67;18.88;;;3.50;85.80;;;;;;5012134;28;98853;-68
2021/11/28 06:10:56;;;;;;;71.28;21.02;;;3.50;85.70;;;;;;4993388;28;101204;-69
2021/11/28 06:13:23;;;;;;;102.65;22.45;;;3.40;85.60;;;;;;4993546;28;100018;-68
2021/11/28 06:16:08;;;;;;;74.90;20.02;;;3.50;85.60;;;;;;4995813;28;98511;-69
2021/11/28 06:18:54;;;;;;;45.45;19.08;;;3.50;85.70;;;;;;5012099;28;97873;-69
2021/11/28 06:21:39;;;;;;;39.58;16.98;;;3.50;85.60;;;;;;5009637;28;98502;-69
2021/11/28 06:24:20;;;;;;;44.38;17.95;;;3.40;85.30;;;;;;4997925;28;101013;-69
2021/11/28 06:26:50;;;;;;;56.83;18.52;;;3.40;85.70;;;;;;4996816;28;99555;-69
2021/11/28 06:29:17;;;;;;;82.18;22.65;;;3.40;85.90;;;;;;5015383;28;98656;-68
2021/11/28 06:31:44;;;;;;;81.13;19.50;;;3.40;85.80;;;;;;5013322;28;101678;-68
2021/11/28 06:34:37;;;;;;;73.80;19.67;;;3.40;85.80;;;;;;5014120;28;99962;-68
2021/11/28 06:37:30;;;;;;;70.22;21.90;;;3.50;86.00;;;;;;4975931;28;98576;-68
2021/11/28 06:40:05;;;;;;;72.05;18.13;;;3.50;85.80;;;;;;5012608;28;98774;-69
2021/11/28 06:42:49;;;;;;;57.85;19.35;;;3.60;85.50;;;;;;4996360;28;101627;-68
2021/11/28 06:45:16;;;;;;;50.38;17.60;;;3.60;85.40;;;;;;4997136;28;100166;-69
2021/11/28 06:47:47;;;;;;;72.13;19.25;;;3.60;85.30;;;;;;4996907;28;99140;-69
2021/11/28 06:50:14;;;;;;;82.97;20.35;;;3.70;85.20;;;;;;4996759;28;98547;-69
2021/11/28 06:52:50;;;;;;;54.92;19.23;;;3.70;85.40;;;;;;5011833;28;99782;-68
2021/11/28 06:55:23;;;;;;;92.27;20.03;;;3.70;85.20;;;;;;5012688;28;99561;-69
2021/11/28 06:58:04;;;;;;;152.65;24.13;;;3.80;85.30;;;;;;5013616;28;98534;-69
2021/11/28 07:00:31;;;;;;;124.10;20.92;;;3.80;85.50;;;;;;4996785;28;98543;-68
2021/11/28 07:02:59;;;;;;;116.13;22.02;;;3.80;85.30;;;;;;4996267;28;101896;-69
2021/11/28 07:05:44;;;;;;;133.98;23.45;;;3.80;85.10;;;;;;5013104;28;98568;-69
2021/11/28 07:08:12;;;;;;;157.65;25.08;;;3.90;85.40;;;;;;4996669;28;98575;-68
2021/11/28 07:10:39;;;;;;;127.30;21.33;;;3.80;85.10;;;;;;5015213;28;98260;-68
2021/11/28 07:13:15;;;;;;;238.98;28.30;;;3.80;85.00;;;;;;4996026;28;101627;-68
2021/11/28 07:15:43;;;;;;;183.85;26.45;;;3.90;85.30;;;;;;4995882;28;101658;-68
2021/11/28 07:18:23;;;;;;;186.25;25.58;;;3.90;85.20;;;;;;4996311;28;99280;-68
2021/11/28 07:21:17;;;;;;;155.18;23.48;;;3.90;85.30;;;;;;4999592;28;99684;-69
2021/11/28 07:23:49;;;;;;;354.52;34.70;;;3.90;85.30;;;;;;4996059;28;101540;-69
2021/11/28 07:26:17;;;;;;;226.95;26.92;;;3.90;85.10;;;;;;4996056;28;101401;-68
2021/11/28 07:28:47;;;;;;;258.05;32.05;;;3.90;85.20;;;;;;4996218;28;98540;-69
2021/11/28 07:31:18;;;;;;;219.05;24.85;;;3.90;85.00;;;;;;4996961;28;98773;-69
2021/11/28 07:34:10;;;;;;;179.75;23.90;;;4.00;85.20;;;;;;5013452;28;99515;-69
2021/11/28 07:36:56;;;;;;;184.85;23.83;;;3.90;85.30;;;;;;4997793;28;98611;-69
2021/11/28 07:39:23;;;;;;;211.73;24.00;;;4.00;85.50;;;;;;4980119;28;98623;-69
2021/11/28 07:41:52;;;;;;;212.25;24.40;;;4.00;84.80;;;;;;5014078;28;98528;-69
2021/11/28 07:44:57;;;;;;;112.03;18.35;;;4.10;84.70;;;;;;4931570;28;99729;-68
2021/11/28 07:47:42;;;;;;;103.85;15.10;;;4.10;84.60;;;;;;4931541;28;99330;-71
2021/11/28 07:50:35;;;;;;;61.13;14.70;;;4.10;84.10;;;;;;4984557;28;98554;-71
2021/11/28 07:53:02;;;;;;;75.53;15.18;;;4.20;84.60;;;;;;4995925;28;99022;-71
2021/11/28 07:55:29;;;;;;;37.53;14.48;;;4.30;84.00;;;;;;4995137;28;101947;-71
2021/11/28 07:58:00;;;;;;;43.20;13.40;;;4.40;83.80;;;;;;5013756;28;98807;-71
2021/11/28 08:00:46;;;;;;;55.95;14.40;;;4.50;83.70;;;;;;4998645;28;98587;-71
2021/11/28 08:03:22;;;;;;;32.22;12.93;;;4.60;83.40;;;;;;5012659;28;97814;-72
2021/11/28 08:06:09;;;;;;;23.83;12.85;;;4.70;82.90;;;;;;5011802;28;98754;-72
2021/11/28 08:08:48;;;;;;;23.10;11.95;;;4.80;82.30;;;;;;4995364;28;101367;-72
2021/11/28 08:11:27;;;;;;;20.45;12.73;;;4.90;82.00;;;;;;5013707;28;99145;-71
2021/11/28 08:13:54;;;;;;;19.77;11.65;;;5.00;82.00;;;;;;5012302;28;99014;-71
2021/11/28 08:16:20;;;;;;;24.33;13.23;;;5.00;81.80;;;;;;5013487;28;99127;-71
2021/11/28 08:18:48;;;;;;;27.08;12.88;;;5.00;82.20;;;;;;5013378;28;99119;-72
2021/11/28 08:21:14;;;;;;;22.95;12.60;;;5.10;81.30;;;;;;5014038;28;98593;-71
2021/11/28 08:23:42;;;;;;;23.92;12.52;;;5.10;81.10;;;;;;5014003;28;98888;-71
2021/11/28 08:26:09;;;;;;;18.25;11.63;;;5.10;81.20;;;;;;5012783;28;99047;-71
2021/11/28 08:28:36;;;;;;;20.30;12.25;;;5.10;81.50;;;;;;5013556;28;98835;-71
2021/11/28 08:31:03;;;;;;;23.30;14.13;;;5.00;81.30;;;;;;5013341;28;98558;-72
2021/11/28 08:33:51;;;;;;;21.80;12.38;;;5.00;81.30;;;;;;5012801;28;98919;-71
2021/11/28 08:36:33;;;;;;;21.90;12.38;;;5.00;81.00;;;;;;5012226;28;101209;-71
2021/11/28 08:39:00;;;;;;;21.75;12.90;;;5.00;81.00;;;;;;4994731;28;100779;-71
2021/11/28 08:41:32;;;;;;;23.13;13.27;;;5.10;80.90;;;;;;5013860;28;98583;-71
2021/11/28 08:44:00;;;;;;;24.35;13.35;;;5.20;81.00;;;;;;5013051;28;98504;-72
2021/11/28 08:46:27;;;;;;;21.50;12.73;;;5.40;80.50;;;;;;4977780;28;100287;-72
2021/11/28 08:48:54;;;;;;;21.13;12.52;;;5.60;80.40;;;;;;4994612;28;99945;-71
2021/11/28 08:51:22;;;;;;;22.30;12.75;;;5.70;80.20;;;;;;4995339;28;98622;-72
2021/11/28 08:53:49;;;;;;;15.77;11.20;;;5.80;79.50;;;;;;5013168;28;103424;-72
2021/11/28 08:56:17;;;;;;;18.02;10.77;;;6.00;79.20;;;;;;4977416;28;100174;-69
2021/11/28 08:58:44;;;;;;;16.65;9.52;;;6.10;79.10;;;;;;4994560;28;101634;-71
2021/11/28 09:01:11;;;;;;;16.15;9.77;;;6.30;78.90;;;;;;5013100;28;99115;-73
2021/11/28 09:03:38;;;;;;;14.25;9.50;;;6.50;79.00;;;;;;5013254;28;98490;-71
2021/11/28 09:06:07;;;;;;;12.05;8.68;;;6.60;78.60;;;;;;5012892;28;99064;-72
2021/11/28 09:08:37;;;;;;;12.18;8.77;;;6.80;78.60;;;;;;5013055;28;99985;-72
2021/11/28 09:11:05;;;;;;;11.20;7.55;;;6.90;78.20;;;;;;5013083;28;98442;-71
2021/11/28 09:13:33;;;;;;;11.75;8.40;;;7.00;77.60;;;;;;5013427;28;98462;-71
2021/11/28 09:16:01;;;;;;;11.02;7.85;;;7.10;77.70;;;;;;4994425;28;100322;-71
2021/11/28 09:18:49;;;;;;;9.70;7.45;;;7.20;77.30;;;;;;4995491;28;100020;-71
2021/11/28 09:21:17;;;;;;;8.48;6.10;;;7.20;77.00;;;;;;5013253;28;98477;-71
2021/11/28 09:26:32;;;;;;;8.63;6.50;;;7.30;76.80;;;;;;4994334;28;103553;-71
2021/11/28 09:29:01;;;;;;;8.23;6.72;;;7.20;76.90;;;;;;5012614;28;99634;-71
2021/11/28 09:31:31;;;;;;;9.20;7.15;;;7.20;76.60;;;;;;5013409;28;98841;-71
2021/11/28 09:33:59;;;;;;;9.45;6.57;;;7.10;76.80;;;;;;4994954;28;98555;-71
2021/11/28 09:36:28;;;;;;;10.38;7.45;;;7.00;76.90;;;;;;4994578;28;100140;-71
2021/11/28 09:38:55;;;;;;;9.70;8.18;;;7.00;77.00;;;;;;5012749;28;98803;-71
2021/11/28 09:41:24;;;;;;;8.38;6.95;;;7.00;77.20;;;;;;5012416;28;98610;-71
2021/11/28 09:43:57;;;;;;;10.02;7.35;;;7.10;77.00;;;;;;5013129;28;100647;-71
2021/11/28 09:46:25;;;;;;;10.27;8.18;;;7.20;76.60;;;;;;5012515;28;100749;-71
2021/11/28 09:48:57;;;;;;;10.25;7.85;;;7.30;76.80;;;;;;5012449;28;98865;-69
2021/11/28 09:51:28;;;;;;;9.82;7.93;;;7.40;76.70;;;;;;4995223;28;100104;-71
2021/11/28 09:54:01;;;;;;;9.80;7.75;;;7.60;76.50;;;;;;4994611;28;98406;-72
2021/11/28 09:56:28;;;;;;;10.13;7.72;;;7.70;76.10;;;;;;5012213;28;99348;-71
2021/11/28 09:58:56;;;;;;;8.70;6.82;;;7.80;75.90;;;;;;4993774;28;98831;-71
2021/11/28 10:01:23;;;;;;;8.35;6.90;;;7.90;75.70;;;;;;5012656;28;98565;-71
2021/11/28 10:03:51;;;;;;;11.20;8.13;;;8.00;75.50;;;;;;5012392;28;98494;-71
2021/11/28 10:06:18;;;;;;;8.77;7.03;;;8.10;75.20;;;;;;5011643;28;106349;-71
2021/11/28 10:08:47;;;;;;;9.55;7.35;;;8.20;74.90;;;;;;5009465;28;104114;-71
2021/11/28 10:11:17;;;;;;;9.27;7.07;;;8.30;75.20;;;;;;5012459;28;98502;-72
2021/11/28 10:13:49;;;;;;;9.20;7.07;;;8.40;75.10;;;;;;5012468;28;98661;-71
2021/11/28 10:16:17;;;;;;;8.40;5.93;;;8.50;74.80;;;;;;5011206;28;99772;-72
2021/11/28 10:18:45;;;;;;;8.57;6.45;;;8.50;75.40;;;;;;5011998;28;99585;-72
2021/11/28 10:21:13;;;;;;;6.80;5.25;;;8.60;74.90;;;;;;4993955;28;98473;-71
2021/11/28 10:24:13;;;;;;;5.55;4.68;;;8.60;74.60;;;;;;5012261;28;98476;-71
2021/11/28 10:26:59;;;;;;;6.65;4.55;;;8.70;74.10;;;;;;5011955;28;99164;-71
2021/11/28 10:29:31;;;;;;;4.57;4.03;;;8.70;74.00;;;;;;5011848;28;98972;-72
2021/11/28 10:32:00;;;;;;;7.03;4.60;;;8.70;74.00;;;;;;5012173;28;98532;-72
2021/11/28 10:34:36;;;;;;;4.47;4.03;;;8.70;74.30;;;;;;5012494;28;97753;-72
2021/11/28 10:37:18;;;;;;;5.88;4.00;;;8.70;74.50;;;;;;5012172;28;99194;-72
2021/11/28 10:39:48;;;;;;;4.45;3.22;;;8.70;74.10;;;;;;4993888;28;103862;-72
2021/11/28 10:42:25;;;;;;;3.92;3.47;;;8.70;74.20;;;;;;5011898;28;99656;-71
2021/11/28 10:45:04;;;;;;;5.00;3.47;;;8.60;74.00;;;;;;5012248;28;98536;-71
2021/11/28 10:47:48;;;;;;;3.05;2.55;;;8.60;73.80;;;;;;5011161;28;99243;-71
2021/11/28 10:50:17;;;;;;;3.92;2.53;;;8.50;73.30;;;;;;5011039;28;104196;-73
2021/11/28 10:52:50;;;;;;;3.67;3.13;;;8.30;74.60;;;;;;5012093;28;98481;-73
2021/11/28 10:55:28;;;;;;;3.85;3.10;;;8.10;74.60;;;;;;5010814;28;99011;-71
2021/11/28 10:58:06;;;;;;;2.70;2.50;;;8.10;75.30;;;;;;5012111;28;99167;-71
2021/11/28 11:01:01;;;;;;;3.55;2.65;;;8.00;76.50;;;;;;4993641;28;99924;-71
2021/11/28 11:03:30;;;;;;;2.55;2.35;;;8.00;76.90;;;;;;5004018;28;98600;-71
2021/11/28 11:06:21;;;;;;;3.25;2.95;;;8.10;75.80;;;;;;5011829;28;99076;-71
2021/11/28 11:08:53;;;;;;;5.88;2.78;;;8.20;75.80;;;;;;5011327;28;99841;-71
2021/11/28 11:11:21;;;;;;;2.42;2.20;;;8.10;76.60;;;;;;5014510;28;100691;-71
2021/11/28 11:13:53;;;;;;;3.03;2.17;;;8.10;76.00;;;;;;5014664;28;102681;-71
2021/11/28 11:16:41;;;;;;;4.57;2.80;;;8.20;75.80;;;;;;5015381;28;98868;-71
2021/11/28 11:19:28;;;;;;;2.83;2.40;;;8.30;75.50;;;;;;5015000;28;99291;-71
2021/11/28 11:22:06;;;;;;;3.33;2.20;;;8.40;75.30;;;;;;5015134;28;98832;-71
2021/11/28 11:24:35;;;;;;;2.25;2.05;;;8.50;75.10;;;;;;4997365;28;98672;-71
2021/11/28 11:27:12;;;;;;;2.03;1.80;;;8.50;74.60;;;;;;5015400;28;97841;-71
2021/11/28 11:29:43;;;;;;;1.50;1.23;;;8.60;74.90;;;;;;4996511;28;99053;-71
2021/11/28 11:32:13;;;;;;;2.80;0.90;;;8.60;73.80;;;;;;4996462;28;99907;-72
2021/11/28 11:34:52;;;;;;;0.80;0.68;;;8.60;73.00;;;;;;5014390;28;99145;-71
2021/11/28 11:37:21;;;;;;;1.27;1.17;;;8.60;72.40;;;;;;5014784;28;98510;-71
2021/11/28 11:39:49;;;;;;;1.00;1.00;;;8.50;72.90;;;;;;5014518;28;99196;-71
2021/11/28 11:42:19;;;;;;;0.88;0.60;;;8.30;72.80;;;;;;5014379;28;98859;-71
2021/11/28 11:44:47;;;;;;;1.00;0.80;;;8.20;73.60;;;;;;5014863;28;98575;-71
2021/11/28 11:47:17;;;;;;;0.73;0.60;;;8.20;73.90;;;;;;5014769;28;98497;-71
2021/11/28 11:49:45;;;;;;;1.02;0.70;;;8.10;74.40;;;;;;5014421;28;99181;-71
2021/11/28 11:52:13;;;;;;;0.50;0.50;;;8.00;75.40;;;;;;4996555;28;99952;-71
2021/11/28 11:54:51;;;;;;;0.70;0.70;;;8.00;74.90;;;;;;4996110;28;98457;-71
2021/11/28 11:57:34;;;;;;;0.82;0.50;;;8.10;75.10;;;;;;4996678;28;98570;-68
2021/11/28 12:00:03;;;;;;;1.40;0.50;;;8.10;74.90;;;;;;4996236;28;100048;-68
2021/11/28 12:02:50;;;;;;;0.80;0.80;;;8.10;75.00;;;;;;5012964;28;99258;-69
2021/11/28 12:05:24;;;;;;;1.33;0.82;;;8.00;75.00;;;;;;5013153;28;98638;-69
2021/11/28 12:08:01;;;;;;;;;;;7.80;75.20;;;;;;5013534;28;98608;-68
2021/11/28 12:10:47;;;;;;;4.03;3.72;;;7.60;75.30;;;;;;5013716;28;100120;-68
2021/11/28 12:13:40;;;;;;;0.65;0.65;;;7.50;75.90;;;;;;5012491;28;99905;-68
2021/11/28 12:16:07;;;;;;;1.00;0.98;;;7.30;75.50;;;;;;5014048;28;98550;-68
2021/11/28 12:18:35;;;;;;;3.60;2.22;;;7.10;76.00;;;;;;5014574;28;98181;-68
2021/11/28 12:21:19;;;;;;;0.60;0.60;;;7.00;76.00;;;;;;5011517;28;101557;-68
2021/11/28 12:24:01;;;;;;;1.90;1.80;;;6.80;76.00;;;;;;5014038;28;98882;-69
2021/11/28 12:26:29;;;;;;;6.65;6.00;;;6.60;76.90;;;;;;5013830;28;99687;-69
2021/11/28 12:29:08;;;;;;;0.52;0.52;;;6.40;78.00;;;;;;5013938;28;98579;-68
2021/11/28 12:31:46;;;;;;;2.05;0.93;;;6.30;79.30;;;;;;5013600;28;99041;-68
2021/11/28 12:34:16;;;;;;;1.27;1.15;;;6.20;78.60;;;;;;4995640;28;101636;-68
2021/11/28 12:36:54;;;;;;;1.58;1.23;;;6.10;78.80;;;;;;5011844;28;98566;-69
2021/11/28 12:39:24;;;;;;;1.35;1.23;;;6.00;79.10;;;;;;4992431;28;98971;-69
2021/11/28 12:42:13;;;;;;;0.45;0.40;;;5.80;80.50;;;;;;5013724;28;99187;-68
2021/11/28 12:44:49;;;;;;;1.85;0.50;;;5.60;82.30;;;;;;5013530;28;98739;-68
2021/11/28 12:47:25;;;;;;;1.67;0.70;;;5.40;83.70;;;;;;5014072;28;98600;-69
2021/11/28 12:50:19;;;;;;;3.03;0.65;;;5.40;83.80;;;;;;5013500;28;98531;-68
2021/11/28 12:52:50;;;;;;;2.35;1.45;;;5.30;84.20;;;;;;4997900;28;99822;-69
2021/11/28 12:55:20;;;;;;;2.25;1.52;;;5.30;84.30;;;;;;4994915;28;101137;-68
2021/11/28 12:57:56;;;;;;;3.58;1.27;;;5.30;83.60;;;;;;5013453;28;98554;-68
2021/11/28 13:00:38;;;;;;;1.23;0.70;;;5.40;83.50;;;;;;5013551;28;98537;-69
2021/11/28 13:03:09;;;;;;;2.58;1.48;;;5.50;83.30;;;;;;5012920;28;111042;-68
2021/11/28 13:05:44;;;;;;;1.48;1.10;;;5.50;83.00;;;;;;5011363;28;100038;-68
2021/11/28 13:08:19;;;;;;;1.35;0.95;;;5.60;83.10;;;;;;4995294;28;98491;-68
2021/11/28 13:10:54;;;;;;;3.00;0.85;;;5.60;82.20;;;;;;4993521;28;97785;-69
2021/11/28 13:13:27;;;;;;;1.70;0.98;;;5.70;81.90;;;;;;4992988;28;99127;-68